sensor_id;sensor_type;location;lat;lon;timestamp;P1;durP1;ratioP1;P2;durP2;ratioP2
80681;SDS011;70045;40.200;44.582;2023-09-19T00:00:57;4.72;;;1.98;;
80681;SDS011;70045;40.200;44.582;2023-09-19T00:03:23;3.95;;;1.85;;
80681;SDS011;70045;40.200;44.582;2023-09-19T00:05:51;4.43;;;1.77;;
80681;SDS011;70045;40.200;44.582;2023-09-19T00:08:17;6.10;;;2.30;;
80681;SDS011;70045;40.200;44.582;2023-09-19T00:10:42;5.00;;;2.20;;
80681;SDS011;70045;40.200;44.582;2023-09-19T00:13:08;7.25;;;2.20;;
80681;SDS011;70045;40.200;44.582;2023-09-19T00:15:41;5.30;;;2.10;;
80681;SDS011;70045;40.200;44.582;2023-09-19T00:18:11;5.95;;;1.92;;
80681;SDS011;70045;40.200;44.582;2023-09-19T00:20:37;6.15;;;2.30;;
80681;SDS011;70045;40.200;44.582;2023-09-19T00:23:03;5.13;;;2.17;;
80681;SDS011;70045;40.200;44.582;2023-09-19T00:25:29;4.82;;;2.05;;
80681;SDS011;70045;40.200;44.582;2023-09-19T00:27:54;6.10;;;1.90;;
80681;SDS011;70045;40.200;44.582;2023-09-19T00:30:22;8.02;;;2.45;;
80681;SDS011;70045;40.200;44.582;2023-09-19T00:32:48;5.80;;;2.30;;
80681;SDS011;70045;40.200;44.582;2023-09-19T00:35:15;4.35;;;2.00;;
80681;SDS011;70045;40.200;44.582;2023-09-19T00:37:40;7.63;;;2.08;;
80681;SDS011;70045;40.200;44.582;2023-09-19T00:40:06;2.63;;;1.73;;
80681;SDS011;70045;40.200;44.582;2023-09-19T00:42:35;4.70;;;1.88;;
80681;SDS011;70045;40.200;44.582;2023-09-19T00:45:01;8.85;;;1.90;;
80681;SDS011;70045;40.200;44.582;2023-09-19T00:47:27;6.10;;;2.15;;
80681;SDS011;70045;40.200;44.582;2023-09-19T00:49:53;6.75;;;2.20;;
80681;SDS011;70045;40.200;44.582;2023-09-19T00:52:19;3.42;;;1.73;;
80681;SDS011;70045;40.200;44.582;2023-09-19T00:54:47;6.25;;;2.05;;
80681;SDS011;70045;40.200;44.582;2023-09-19T00:57:13;5.20;;;1.95;;
80681;SDS011;70045;40.200;44.582;2023-09-19T00:59:39;3.60;;;1.80;;
80681;SDS011;70045;40.200;44.582;2023-09-19T01:02:04;6.60;;;2.25;;
80681;SDS011;70045;40.200;44.582;2023-09-19T01:04:31;7.32;;;2.60;;
80681;SDS011;70045;40.200;44.582;2023-09-19T01:06:59;4.85;;;1.92;;
80681;SDS011;70045;40.200;44.582;2023-09-19T01:09:24;4.07;;;1.77;;
80681;SDS011;70045;40.200;44.582;2023-09-19T01:11:50;5.90;;;2.13;;
80681;SDS011;70045;40.200;44.582;2023-09-19T01:16:56;3.92;;;1.80;;
80681;SDS011;70045;40.200;44.582;2023-09-19T01:30:47;7.78;;;2.10;;
80681;SDS011;70045;40.200;44.582;2023-09-19T01:33:16;5.35;;;2.05;;
80681;SDS011;70045;40.200;44.582;2023-09-19T01:35:42;3.90;;;2.00;;
80681;SDS011;70045;40.200;44.582;2023-09-19T01:38:10;5.78;;;1.70;;
80681;SDS011;70045;40.200;44.582;2023-09-19T01:40:37;5.55;;;2.35;;
80681;SDS011;70045;40.200;44.582;2023-09-19T01:48:57;3.83;;;1.90;;
80681;SDS011;70045;40.200;44.582;2023-09-19T01:51:33;4.07;;;1.90;;
80681;SDS011;70045;40.200;44.582;2023-09-19T01:54:12;4.40;;;1.80;;
80681;SDS011;70045;40.200;44.582;2023-09-19T01:56:51;2.60;;;1.52;;
80681;SDS011;70045;40.200;44.582;2023-09-19T01:59:28;3.65;;;1.90;;
80681;SDS011;70045;40.200;44.582;2023-09-19T02:02:00;4.57;;;1.63;;
80681;SDS011;70045;40.200;44.582;2023-09-19T02:04:26;3.63;;;1.63;;
80681;SDS011;70045;40.200;44.582;2023-09-19T02:06:52;4.63;;;2.00;;
80681;SDS011;70045;40.200;44.582;2023-09-19T02:09:18;4.45;;;1.75;;
80681;SDS011;70045;40.200;44.582;2023-09-19T02:11:46;4.10;;;2.03;;
80681;SDS011;70045;40.200;44.582;2023-09-19T02:14:12;6.93;;;2.05;;
80681;SDS011;70045;40.200;44.582;2023-09-19T02:16:37;3.38;;;1.90;;
80681;SDS011;70045;40.200;44.582;2023-09-19T02:19:02;4.30;;;1.83;;
80681;SDS011;70045;40.200;44.582;2023-09-19T02:21:28;5.97;;;1.75;;
80681;SDS011;70045;40.200;44.582;2023-09-19T02:23:56;4.68;;;1.90;;
80681;SDS011;70045;40.200;44.582;2023-09-19T02:26:21;3.65;;;1.80;;
80681;SDS011;70045;40.200;44.582;2023-09-19T02:28:47;2.60;;;1.83;;
80681;SDS011;70045;40.200;44.582;2023-09-19T02:31:12;5.20;;;1.67;;
80681;SDS011;70045;40.200;44.582;2023-09-19T02:33:37;4.45;;;1.77;;
80681;SDS011;70045;40.200;44.582;2023-09-19T02:36:05;3.42;;;1.70;;
80681;SDS011;70045;40.200;44.582;2023-09-19T02:38:31;3.25;;;1.90;;
80681;SDS011;70045;40.200;44.582;2023-09-19T02:40:56;8.48;;;1.88;;
80681;SDS011;70045;40.200;44.582;2023-09-19T02:43:22;2.78;;;1.73;;
80681;SDS011;70045;40.200;44.582;2023-09-19T02:45:48;4.50;;;2.10;;
80681;SDS011;70045;40.200;44.582;2023-09-19T02:48:16;4.25;;;1.77;;
80681;SDS011;70045;40.200;44.582;2023-09-19T02:50:42;4.00;;;1.83;;
80681;SDS011;70045;40.200;44.582;2023-09-19T02:53:08;3.85;;;1.80;;
80681;SDS011;70045;40.200;44.582;2023-09-19T02:55:33;3.15;;;1.90;;
80681;SDS011;70045;40.200;44.582;2023-09-19T02:57:59;7.53;;;1.83;;
80681;SDS011;70045;40.200;44.582;2023-09-19T03:00:27;2.42;;;1.63;;
80681;SDS011;70045;40.200;44.582;2023-09-19T03:02:55;2.45;;;1.50;;
80681;SDS011;70045;40.200;44.582;2023-09-19T03:05:21;3.20;;;1.63;;
80681;SDS011;70045;40.200;44.582;2023-09-19T03:07:48;7.05;;;2.00;;
80681;SDS011;70045;40.200;44.582;2023-09-19T03:10:13;5.32;;;1.90;;
80681;SDS011;70045;40.200;44.582;2023-09-19T03:12:41;8.88;;;2.05;;
80681;SDS011;70045;40.200;44.582;2023-09-19T03:15:07;9.15;;;2.67;;
80681;SDS011;70045;40.200;44.582;2023-09-19T03:17:32;5.97;;;2.63;;
80681;SDS011;70045;40.200;44.582;2023-09-19T03:19:58;7.07;;;2.53;;
80681;SDS011;70045;40.200;44.582;2023-09-19T03:22:23;4.78;;;2.28;;
80681;SDS011;70045;40.200;44.582;2023-09-19T03:24:51;8.70;;;2.42;;
80681;SDS011;70045;40.200;44.582;2023-09-19T03:27:16;6.95;;;1.90;;
80681;SDS011;70045;40.200;44.582;2023-09-19T03:29:42;7.30;;;2.10;;
80681;SDS011;70045;40.200;44.582;2023-09-19T03:32:07;4.03;;;2.15;;
80681;SDS011;70045;40.200;44.582;2023-09-19T03:34:33;8.10;;;2.45;;
80681;SDS011;70045;40.200;44.582;2023-09-19T03:37:03;9.10;;;2.63;;
80681;SDS011;70045;40.200;44.582;2023-09-19T03:39:29;9.27;;;2.47;;
80681;SDS011;70045;40.200;44.582;2023-09-19T03:41:54;7.40;;;2.67;;
80681;SDS011;70045;40.200;44.582;2023-09-19T03:44:19;9.27;;;2.80;;
80681;SDS011;70045;40.200;44.582;2023-09-19T03:46:45;8.95;;;2.85;;
80681;SDS011;70045;40.200;44.582;2023-09-19T03:49:13;6.05;;;2.25;;
80681;SDS011;70045;40.200;44.582;2023-09-19T03:51:38;5.85;;;2.30;;
80681;SDS011;70045;40.200;44.582;2023-09-19T03:54:04;5.88;;;2.47;;
80681;SDS011;70045;40.200;44.582;2023-09-19T03:56:29;8.40;;;2.30;;
80681;SDS011;70045;40.200;44.582;2023-09-19T03:58:54;9.52;;;2.33;;
80681;SDS011;70045;40.200;44.582;2023-09-19T04:01:22;4.35;;;2.05;;
80681;SDS011;70045;40.200;44.582;2023-09-19T04:03:48;4.97;;;2.40;;
80681;SDS011;70045;40.200;44.582;2023-09-19T04:06:14;6.32;;;2.10;;
80681;SDS011;70045;40.200;44.582;2023-09-19T04:08:40;9.18;;;2.60;;
80681;SDS011;70045;40.200;44.582;2023-09-19T04:11:05;11.45;;;2.55;;
80681;SDS011;70045;40.200;44.582;2023-09-19T04:13:34;8.10;;;2.40;;
80681;SDS011;70045;40.200;44.582;2023-09-19T04:15:59;6.43;;;2.55;;
80681;SDS011;70045;40.200;44.582;2023-09-19T04:18:25;8.15;;;2.25;;
80681;SDS011;70045;40.200;44.582;2023-09-19T04:20:51;9.38;;;2.10;;
80681;SDS011;70045;40.200;44.582;2023-09-19T04:23:16;5.10;;;2.22;;
80681;SDS011;70045;40.200;44.582;2023-09-19T04:25:44;5.95;;;2.00;;
80681;SDS011;70045;40.200;44.582;2023-09-19T04:28:10;5.85;;;1.85;;
80681;SDS011;70045;40.200;44.582;2023-09-19T04:30:35;4.78;;;2.15;;
80681;SDS011;70045;40.200;44.582;2023-09-19T04:33:01;7.38;;;2.30;;
80681;SDS011;70045;40.200;44.582;2023-09-19T04:35:26;7.07;;;2.03;;
80681;SDS011;70045;40.200;44.582;2023-09-19T04:37:54;5.47;;;1.80;;
80681;SDS011;70045;40.200;44.582;2023-09-19T04:40:20;2.72;;;1.50;;
80681;SDS011;70045;40.200;44.582;2023-09-19T04:42:45;4.68;;;2.00;;
80681;SDS011;70045;40.200;44.582;2023-09-19T04:45:17;3.13;;;1.40;;
80681;SDS011;70045;40.200;44.582;2023-09-19T04:47:43;5.65;;;1.73;;
80681;SDS011;70045;40.200;44.582;2023-09-19T04:50:08;6.90;;;2.30;;
80681;SDS011;70045;40.200;44.582;2023-09-19T04:52:34;7.03;;;2.20;;
80681;SDS011;70045;40.200;44.582;2023-09-19T04:54:59;8.10;;;2.58;;
80681;SDS011;70045;40.200;44.582;2023-09-19T04:57:25;5.57;;;2.63;;
80681;SDS011;70045;40.200;44.582;2023-09-19T04:59:55;5.18;;;2.40;;
80681;SDS011;70045;40.200;44.582;2023-09-19T05:02:20;4.28;;;1.83;;
80681;SDS011;70045;40.200;44.582;2023-09-19T05:04:45;6.93;;;2.40;;
80681;SDS011;70045;40.200;44.582;2023-09-19T05:07:11;6.38;;;1.95;;
80681;SDS011;70045;40.200;44.582;2023-09-19T05:09:36;7.97;;;1.80;;
80681;SDS011;70045;40.200;44.582;2023-09-19T05:12:04;6.60;;;1.90;;
80681;SDS011;70045;40.200;44.582;2023-09-19T05:14:30;9.68;;;1.85;;
80681;SDS011;70045;40.200;44.582;2023-09-19T05:16:55;5.47;;;1.85;;
80681;SDS011;70045;40.200;44.582;2023-09-19T05:19:21;6.57;;;1.70;;
80681;SDS011;70045;40.200;44.582;2023-09-19T05:21:46;6.13;;;1.90;;
80681;SDS011;70045;40.200;44.582;2023-09-19T05:24:14;9.52;;;2.30;;
80681;SDS011;70045;40.200;44.582;2023-09-19T05:26:40;4.05;;;1.90;;
80681;SDS011;70045;40.200;44.582;2023-09-19T05:29:05;8.13;;;2.60;;
80681;SDS011;70045;40.200;44.582;2023-09-19T05:31:30;8.88;;;2.28;;
80681;SDS011;70045;40.200;44.582;2023-09-19T05:33:56;8.38;;;2.63;;
80681;SDS011;70045;40.200;44.582;2023-09-19T05:36:27;11.27;;;2.47;;
80681;SDS011;70045;40.200;44.582;2023-09-19T05:38:53;5.20;;;2.15;;
80681;SDS011;70045;40.200;44.582;2023-09-19T05:41:18;7.90;;;2.30;;
80681;SDS011;70045;40.200;44.582;2023-09-19T05:43:44;6.80;;;2.28;;
80681;SDS011;70045;40.200;44.582;2023-09-19T05:46:09;12.05;;;2.97;;
80681;SDS011;70045;40.200;44.582;2023-09-19T05:48:37;9.45;;;2.38;;
80681;SDS011;70045;40.200;44.582;2023-09-19T05:51:03;7.80;;;2.35;;
80681;SDS011;70045;40.200;44.582;2023-09-19T05:53:28;6.20;;;2.40;;
80681;SDS011;70045;40.200;44.582;2023-09-19T05:55:53;5.43;;;2.03;;
80681;SDS011;70045;40.200;44.582;2023-09-19T05:58:19;5.47;;;1.75;;
80681;SDS011;70045;40.200;44.582;2023-09-19T06:00:47;8.50;;;2.30;;
80681;SDS011;70045;40.200;44.582;2023-09-19T06:03:13;7.15;;;2.20;;
80681;SDS011;70045;40.200;44.582;2023-09-19T06:05:38;7.05;;;2.15;;
80681;SDS011;70045;40.200;44.582;2023-09-19T06:08:03;4.63;;;1.98;;
80681;SDS011;70045;40.200;44.582;2023-09-19T06:10:32;6.35;;;1.92;;
80681;SDS011;70045;40.200;44.582;2023-09-19T06:13:02;7.43;;;2.10;;
80681;SDS011;70045;40.200;44.582;2023-09-19T06:15:28;8.32;;;2.30;;
80681;SDS011;70045;40.200;44.582;2023-09-19T06:17:54;8.02;;;2.00;;
80681;SDS011;70045;40.200;44.582;2023-09-19T06:20:20;8.45;;;2.15;;
80681;SDS011;70045;40.200;44.582;2023-09-19T06:22:46;26.02;;;3.10;;
80681;SDS011;70045;40.200;44.582;2023-09-19T06:25:15;11.75;;;2.97;;
80681;SDS011;70045;40.200;44.582;2023-09-19T06:27:41;7.07;;;2.58;;
80681;SDS011;70045;40.200;44.582;2023-09-19T06:30:06;10.68;;;2.78;;
80681;SDS011;70045;40.200;44.582;2023-09-19T06:32:32;5.97;;;2.15;;
80681;SDS011;70045;40.200;44.582;2023-09-19T06:34:58;6.82;;;2.10;;
80681;SDS011;70045;40.200;44.582;2023-09-19T06:37:27;7.57;;;2.00;;
80681;SDS011;70045;40.200;44.582;2023-09-19T06:39:53;8.50;;;2.38;;
80681;SDS011;70045;40.200;44.582;2023-09-19T06:42:19;67.95;;;8.93;;
80681;SDS011;70045;40.200;44.582;2023-09-19T06:44:45;43.28;;;7.75;;
80681;SDS011;70045;40.200;44.582;2023-09-19T06:47:13;9.55;;;3.58;;
80681;SDS011;70045;40.200;44.582;2023-09-19T06:49:41;31.80;;;4.68;;
80681;SDS011;70045;40.200;44.582;2023-09-19T06:52:07;14.35;;;3.40;;
80681;SDS011;70045;40.200;44.582;2023-09-19T06:54:32;11.40;;;3.20;;
80681;SDS011;70045;40.200;44.582;2023-09-19T06:56:58;8.82;;;2.92;;
80681;SDS011;70045;40.200;44.582;2023-09-19T06:59:23;9.40;;;3.33;;
80681;SDS011;70045;40.200;44.582;2023-09-19T07:01:52;11.30;;;3.75;;
80681;SDS011;70045;40.200;44.582;2023-09-19T07:04:17;7.80;;;2.80;;
80681;SDS011;70045;40.200;44.582;2023-09-19T07:06:43;13.88;;;3.25;;
80681;SDS011;70045;40.200;44.582;2023-09-19T07:09:08;11.93;;;3.45;;
80681;SDS011;70045;40.200;44.582;2023-09-19T07:11:34;8.68;;;2.78;;
80681;SDS011;70045;40.200;44.582;2023-09-19T07:14:02;6.97;;;2.80;;
80681;SDS011;70045;40.200;44.582;2023-09-19T07:16:28;9.13;;;2.80;;
80681;SDS011;70045;40.200;44.582;2023-09-19T07:18:53;15.05;;;3.00;;
80681;SDS011;70045;40.200;44.582;2023-09-19T07:21:19;7.88;;;2.63;;
80681;SDS011;70045;40.200;44.582;2023-09-19T07:23:44;8.55;;;2.67;;
80681;SDS011;70045;40.200;44.582;2023-09-19T07:26:12;6.30;;;2.67;;
80681;SDS011;70045;40.200;44.582;2023-09-19T07:28:38;8.48;;;2.65;;
80681;SDS011;70045;40.200;44.582;2023-09-19T07:31:03;7.15;;;2.70;;
80681;SDS011;70045;40.200;44.582;2023-09-19T07:33:29;6.82;;;2.72;;
80681;SDS011;70045;40.200;44.582;2023-09-19T07:35:54;8.18;;;3.03;;
80681;SDS011;70045;40.200;44.582;2023-09-19T07:38:22;7.65;;;2.65;;
80681;SDS011;70045;40.200;44.582;2023-09-19T07:40:48;11.10;;;2.75;;
80681;SDS011;70045;40.200;44.582;2023-09-19T07:43:13;7.28;;;3.00;;
80681;SDS011;70045;40.200;44.582;2023-09-19T07:45:39;9.43;;;2.75;;
80681;SDS011;70045;40.200;44.582;2023-09-19T07:48:04;8.07;;;2.70;;
80681;SDS011;70045;40.200;44.582;2023-09-19T07:50:36;10.40;;;2.90;;
80681;SDS011;70045;40.200;44.582;2023-09-19T07:53:01;38.15;;;4.72;;
80681;SDS011;70045;40.200;44.582;2023-09-19T07:55:26;7.80;;;2.53;;
80681;SDS011;70045;40.200;44.582;2023-09-19T07:57:52;8.27;;;2.28;;
80681;SDS011;70045;40.200;44.582;2023-09-19T08:00:18;12.10;;;2.90;;
80681;SDS011;70045;40.200;44.582;2023-09-19T08:02:46;8.05;;;2.47;;
80681;SDS011;70045;40.200;44.582;2023-09-19T08:05:12;10.07;;;2.80;;
80681;SDS011;70045;40.200;44.582;2023-09-19T08:07:38;8.63;;;2.75;;
80681;SDS011;70045;40.200;44.582;2023-09-19T08:10:05;7.05;;;2.38;;
80681;SDS011;70045;40.200;44.582;2023-09-19T08:12:31;7.25;;;2.67;;
80681;SDS011;70045;40.200;44.582;2023-09-19T08:14:59;5.50;;;2.33;;
80681;SDS011;70045;40.200;44.582;2023-09-19T08:17:25;7.38;;;2.45;;
80681;SDS011;70045;40.200;44.582;2023-09-19T08:19:50;7.95;;;2.50;;
80681;SDS011;70045;40.200;44.582;2023-09-19T08:22:15;15.30;;;3.83;;
80681;SDS011;70045;40.200;44.582;2023-09-19T08:24:41;17.13;;;3.72;;
80681;SDS011;70045;40.200;44.582;2023-09-19T08:27:06;9.07;;;2.70;;
80681;SDS011;70045;40.200;44.582;2023-09-19T08:29:32;6.05;;;2.00;;
80681;SDS011;70045;40.200;44.582;2023-09-19T08:31:57;8.32;;;2.42;;
80681;SDS011;70045;40.200;44.582;2023-09-19T08:34:23;9.05;;;2.85;;
80681;SDS011;70045;40.200;44.582;2023-09-19T08:36:52;7.25;;;2.50;;
80681;SDS011;70045;40.200;44.582;2023-09-19T08:39:19;12.18;;;2.67;;
80681;SDS011;70045;40.200;44.582;2023-09-19T08:41:44;6.05;;;2.33;;
80681;SDS011;70045;40.200;44.582;2023-09-19T08:44:10;4.32;;;2.50;;
80681;SDS011;70045;40.200;44.582;2023-09-19T08:46:35;4.10;;;1.85;;
80681;SDS011;70045;40.200;44.582;2023-09-19T08:49:11;5.25;;;1.98;;
80681;SDS011;70045;40.200;44.582;2023-09-19T08:52:00;6.63;;;2.40;;
80681;SDS011;70045;40.200;44.582;2023-09-19T08:54:32;6.47;;;2.53;;
80681;SDS011;70045;40.200;44.582;2023-09-19T08:57:04;7.80;;;2.10;;
80681;SDS011;70045;40.200;44.582;2023-09-19T08:59:35;4.28;;;2.28;;
80681;SDS011;70045;40.200;44.582;2023-09-19T09:02:12;6.40;;;2.25;;
80681;SDS011;70045;40.200;44.582;2023-09-19T09:04:40;7.80;;;2.20;;
80681;SDS011;70045;40.200;44.582;2023-09-19T09:07:11;6.18;;;2.17;;
80681;SDS011;70045;40.200;44.582;2023-09-19T09:09:40;5.50;;;2.20;;
80681;SDS011;70045;40.200;44.582;2023-09-19T09:12:05;8.82;;;2.22;;
80681;SDS011;70045;40.200;44.582;2023-09-19T09:14:31;4.07;;;2.03;;
80681;SDS011;70045;40.200;44.582;2023-09-19T09:16:56;3.75;;;2.20;;
80681;SDS011;70045;40.200;44.582;2023-09-19T09:19:22;4.90;;;1.80;;
80681;SDS011;70045;40.200;44.582;2023-09-19T09:21:50;4.95;;;2.13;;
80681;SDS011;70045;40.200;44.582;2023-09-19T09:26:57;7.95;;;2.17;;
80681;SDS011;70045;40.200;44.582;2023-09-19T09:29:41;4.05;;;1.92;;
80681;SDS011;70045;40.200;44.582;2023-09-19T09:32:23;3.72;;;2.05;;
80681;SDS011;70045;40.200;44.582;2023-09-19T09:34:50;7.20;;;2.30;;
80681;SDS011;70045;40.200;44.582;2023-09-19T09:37:16;17.70;;;2.85;;
80681;SDS011;70045;40.200;44.582;2023-09-19T09:39:48;5.57;;;2.30;;
80681;SDS011;70045;40.200;44.582;2023-09-19T09:42:30;10.95;;;2.65;;
80681;SDS011;70045;40.200;44.582;2023-09-19T09:47:52;21.52;;;4.35;;
80681;SDS011;70045;40.200;44.582;2023-09-19T09:50:27;6.18;;;2.30;;
80681;SDS011;70045;40.200;44.582;2023-09-19T09:52:59;5.88;;;2.17;;
80681;SDS011;70045;40.200;44.582;2023-09-19T09:55:24;5.50;;;2.67;;
80681;SDS011;70045;40.200;44.582;2023-09-19T09:57:57;6.65;;;2.00;;
80681;SDS011;70045;40.200;44.582;2023-09-19T10:00:52;6.38;;;2.15;;
80681;SDS011;70045;40.200;44.582;2023-09-19T10:03:21;4.75;;;1.95;;
80681;SDS011;70045;40.200;44.582;2023-09-19T10:05:46;5.28;;;2.30;;
80681;SDS011;70045;40.200;44.582;2023-09-19T10:08:18;6.65;;;2.75;;
80681;SDS011;70045;40.200;44.582;2023-09-19T10:10:44;3.60;;;1.90;;
80681;SDS011;70045;40.200;44.582;2023-09-19T10:13:13;4.43;;;2.25;;
80681;SDS011;70045;40.200;44.582;2023-09-19T10:15:42;3.70;;;1.88;;
80681;SDS011;70045;40.200;44.582;2023-09-19T10:18:10;5.07;;;1.88;;
80681;SDS011;70045;40.200;44.582;2023-09-19T10:20:36;3.95;;;1.90;;
80681;SDS011;70045;40.200;44.582;2023-09-19T10:23:06;4.28;;;2.13;;
80681;SDS011;70045;40.200;44.582;2023-09-19T10:25:36;4.68;;;1.85;;
80681;SDS011;70045;40.200;44.582;2023-09-19T10:28:06;4.03;;;1.80;;
80681;SDS011;70045;40.200;44.582;2023-09-19T10:30:43;4.95;;;2.20;;
80681;SDS011;70045;40.200;44.582;2023-09-19T10:33:10;7.05;;;2.20;;
80681;SDS011;70045;40.200;44.582;2023-09-19T10:35:40;4.03;;;1.85;;
80681;SDS011;70045;40.200;44.582;2023-09-19T10:38:11;4.97;;;2.30;;
80681;SDS011;70045;40.200;44.582;2023-09-19T10:40:39;8.30;;;2.10;;
80681;SDS011;70045;40.200;44.582;2023-09-19T10:43:05;3.22;;;2.00;;
80681;SDS011;70045;40.200;44.582;2023-09-19T10:45:33;5.72;;;2.13;;
80681;SDS011;70045;40.200;44.582;2023-09-19T10:48:00;4.18;;;1.98;;
80681;SDS011;70045;40.200;44.582;2023-09-19T10:50:30;4.68;;;2.00;;
80681;SDS011;70045;40.200;44.582;2023-09-19T10:52:59;4.35;;;1.83;;
80681;SDS011;70045;40.200;44.582;2023-09-19T10:57:53;5.93;;;1.98;;
80681;SDS011;70045;40.200;44.582;2023-09-19T11:00:19;6.43;;;1.98;;
80681;SDS011;70045;40.200;44.582;2023-09-19T11:05:34;5.22;;;1.90;;
80681;SDS011;70045;40.200;44.582;2023-09-19T11:08:00;5.38;;;1.80;;
80681;SDS011;70045;40.200;44.582;2023-09-19T11:26:45;8.00;;;2.20;;
80681;SDS011;70045;40.200;44.582;2023-09-19T11:29:30;3.65;;;1.90;;
80681;SDS011;70045;40.200;44.582;2023-09-19T11:31:56;3.97;;;2.05;;
80681;SDS011;70045;40.200;44.582;2023-09-19T11:39:40;4.97;;;2.00;;
80681;SDS011;70045;40.200;44.582;2023-09-19T11:48:04;2.63;;;1.50;;
80681;SDS011;70045;40.200;44.582;2023-09-19T11:50:32;3.45;;;1.58;;
80681;SDS011;70045;40.200;44.582;2023-09-19T11:52:57;10.23;;;2.20;;
80681;SDS011;70045;40.200;44.582;2023-09-19T11:55:30;6.07;;;1.80;;
80681;SDS011;70045;40.200;44.582;2023-09-19T11:57:56;3.50;;;1.85;;
80681;SDS011;70045;40.200;44.582;2023-09-19T12:00:22;5.32;;;1.80;;
80681;SDS011;70045;40.200;44.582;2023-09-19T12:02:48;3.08;;;1.63;;
80681;SDS011;70045;40.200;44.582;2023-09-19T12:05:27;8.02;;;2.03;;
80681;SDS011;70045;40.200;44.582;2023-09-19T12:07:56;4.22;;;1.80;;
80681;SDS011;70045;40.200;44.582;2023-09-19T12:10:21;5.00;;;2.00;;
80681;SDS011;70045;40.200;44.582;2023-09-19T12:15:17;4.70;;;1.80;;
80681;SDS011;70045;40.200;44.582;2023-09-19T12:17:51;2.72;;;1.58;;
80681;SDS011;70045;40.200;44.582;2023-09-19T12:20:17;2.80;;;1.52;;
80681;SDS011;70045;40.200;44.582;2023-09-19T12:22:43;10.93;;;2.30;;
80681;SDS011;70045;40.200;44.582;2023-09-19T12:25:09;4.30;;;2.20;;
80681;SDS011;70045;40.200;44.582;2023-09-19T12:28:08;6.30;;;1.88;;
80681;SDS011;70045;40.200;44.582;2023-09-19T12:30:29;6.03;;;1.88;;
80681;SDS011;70045;40.200;44.582;2023-09-19T12:32:56;5.63;;;1.80;;
80681;SDS011;70045;40.200;44.582;2023-09-19T12:35:31;5.15;;;1.70;;
80681;SDS011;70045;40.200;44.582;2023-09-19T12:37:58;4.80;;;1.70;;
80681;SDS011;70045;40.200;44.582;2023-09-19T12:40:26;3.03;;;1.60;;
80681;SDS011;70045;40.200;44.582;2023-09-19T12:42:52;4.95;;;1.63;;
80681;SDS011;70045;40.200;44.582;2023-09-19T12:45:19;3.25;;;1.70;;
80681;SDS011;70045;40.200;44.582;2023-09-19T12:51:01;3.15;;;1.60;;
80681;SDS011;70045;40.200;44.582;2023-09-19T12:53:37;6.18;;;1.60;;
80681;SDS011;70045;40.200;44.582;2023-09-19T12:56:06;5.53;;;2.20;;
80681;SDS011;70045;40.200;44.582;2023-09-19T12:58:32;5.30;;;1.95;;
80681;SDS011;70045;40.200;44.582;2023-09-19T13:01:00;4.30;;;1.90;;
80681;SDS011;70045;40.200;44.582;2023-09-19T13:03:26;5.75;;;2.30;;
80681;SDS011;70045;40.200;44.582;2023-09-19T13:05:53;5.35;;;1.80;;
80681;SDS011;70045;40.200;44.582;2023-09-19T13:08:30;4.28;;;1.98;;
80681;SDS011;70045;40.200;44.582;2023-09-19T13:11:13;7.97;;;1.98;;
80681;SDS011;70045;40.200;44.582;2023-09-19T13:14:13;4.18;;;1.90;;
80681;SDS011;70045;40.200;44.582;2023-09-19T13:19:38;1.83;;;1.40;;
80681;SDS011;70045;40.200;44.582;2023-09-19T13:25:13;4.72;;;1.65;;
80681;SDS011;70045;40.200;44.582;2023-09-19T13:27:42;5.15;;;1.50;;
80681;SDS011;70045;40.200;44.582;2023-09-19T13:30:09;3.17;;;1.50;;
80681;SDS011;70045;40.200;44.582;2023-09-19T13:32:38;3.35;;;1.80;;
80681;SDS011;70045;40.200;44.582;2023-09-19T13:35:04;6.38;;;1.65;;
80681;SDS011;70045;40.200;44.582;2023-09-19T13:37:30;3.97;;;1.65;;
80681;SDS011;70045;40.200;44.582;2023-09-19T13:39:56;3.17;;;1.70;;
80681;SDS011;70045;40.200;44.582;2023-09-19T13:42:21;5.25;;;1.90;;
80681;SDS011;70045;40.200;44.582;2023-09-19T13:44:49;3.35;;;1.77;;
80681;SDS011;70045;40.200;44.582;2023-09-19T13:47:15;6.13;;;1.90;;
80681;SDS011;70045;40.200;44.582;2023-09-19T13:49:40;5.65;;;2.13;;
80681;SDS011;70045;40.200;44.582;2023-09-19T13:52:05;5.35;;;1.67;;
80681;SDS011;70045;40.200;44.582;2023-09-19T13:54:31;6.80;;;1.80;;
80681;SDS011;70045;40.200;44.582;2023-09-19T13:56:59;7.82;;;2.08;;
80681;SDS011;70045;40.200;44.582;2023-09-19T13:59:25;6.38;;;1.80;;
80681;SDS011;70045;40.200;44.582;2023-09-19T14:01:50;4.80;;;1.70;;
80681;SDS011;70045;40.200;44.582;2023-09-19T14:04:15;3.17;;;1.95;;
80681;SDS011;70045;40.200;44.582;2023-09-19T14:06:41;4.28;;;1.98;;
80681;SDS011;70045;40.200;44.582;2023-09-19T14:09:10;3.47;;;1.80;;
80681;SDS011;70045;40.200;44.582;2023-09-19T14:11:35;6.07;;;1.85;;
80681;SDS011;70045;40.200;44.582;2023-09-19T14:14:01;2.95;;;1.88;;
80681;SDS011;70045;40.200;44.582;2023-09-19T14:16:27;7.43;;;2.85;;
80681;SDS011;70045;40.200;44.582;2023-09-19T14:18:52;5.93;;;2.22;;
80681;SDS011;70045;40.200;44.582;2023-09-19T14:21:20;6.88;;;1.98;;
80681;SDS011;70045;40.200;44.582;2023-09-19T14:23:45;9.88;;;3.03;;
80681;SDS011;70045;40.200;44.582;2023-09-19T14:26:11;5.43;;;2.00;;
80681;SDS011;70045;40.200;44.582;2023-09-19T14:28:36;9.63;;;3.40;;
80681;SDS011;70045;40.200;44.582;2023-09-19T14:31:08;10.35;;;2.60;;
80681;SDS011;70045;40.200;44.582;2023-09-19T14:33:37;6.93;;;2.78;;
80681;SDS011;70045;40.200;44.582;2023-09-19T14:36:06;7.50;;;3.03;;
80681;SDS011;70045;40.200;44.582;2023-09-19T14:38:33;7.38;;;2.63;;
80681;SDS011;70045;40.200;44.582;2023-09-19T14:41:00;8.35;;;2.35;;
80681;SDS011;70045;40.200;44.582;2023-09-19T14:43:26;6.78;;;2.35;;
80681;SDS011;70045;40.200;44.582;2023-09-19T14:45:54;3.35;;;1.67;;
80681;SDS011;70045;40.200;44.582;2023-09-19T14:48:20;8.90;;;2.15;;
80681;SDS011;70045;40.200;44.582;2023-09-19T14:50:45;7.95;;;2.28;;
80681;SDS011;70045;40.200;44.582;2023-09-19T14:53:11;4.40;;;1.67;;
80681;SDS011;70045;40.200;44.582;2023-09-19T14:55:36;3.05;;;1.65;;
80681;SDS011;70045;40.200;44.582;2023-09-19T14:58:05;5.97;;;1.75;;
80681;SDS011;70045;40.200;44.582;2023-09-19T15:00:30;5.60;;;2.70;;
80681;SDS011;70045;40.200;44.582;2023-09-19T15:02:55;10.15;;;3.90;;
80681;SDS011;70045;40.200;44.582;2023-09-19T15:05:21;4.78;;;2.15;;
80681;SDS011;70045;40.200;44.582;2023-09-19T15:07:46;6.38;;;2.25;;
80681;SDS011;70045;40.200;44.582;2023-09-19T15:10:14;6.57;;;2.08;;
80681;SDS011;70045;40.200;44.582;2023-09-19T15:12:40;8.20;;;1.80;;
80681;SDS011;70045;40.200;44.582;2023-09-19T15:15:05;4.25;;;1.98;;
80681;SDS011;70045;40.200;44.582;2023-09-19T15:17:31;3.70;;;1.85;;
80681;SDS011;70045;40.200;44.582;2023-09-19T15:19:57;2.95;;;1.73;;
80681;SDS011;70045;40.200;44.582;2023-09-19T15:22:25;6.40;;;2.67;;
80681;SDS011;70045;40.200;44.582;2023-09-19T15:24:50;5.45;;;2.20;;
80681;SDS011;70045;40.200;44.582;2023-09-19T15:27:15;5.82;;;1.88;;
80681;SDS011;70045;40.200;44.582;2023-09-19T15:29:41;8.35;;;2.45;;
80681;SDS011;70045;40.200;44.582;2023-09-19T15:32:06;9.48;;;2.78;;
80681;SDS011;70045;40.200;44.582;2023-09-19T15:34:34;6.47;;;2.78;;
80681;SDS011;70045;40.200;44.582;2023-09-19T15:37:00;7.57;;;3.08;;
80681;SDS011;70045;40.200;44.582;2023-09-19T15:39:25;5.95;;;2.58;;
80681;SDS011;70045;40.200;44.582;2023-09-19T15:41:54;6.35;;;2.08;;
80681;SDS011;70045;40.200;44.582;2023-09-19T15:44:20;5.78;;;2.30;;